KMTN/MTN METAR and TAF weather

Enter ICAO airport designator
Station Type Date Time Source
KMTN METAR 2024/04/23 03:39 UTC NOAA

KMTN 230339Z AUTO 00000KT 10SM CLR 08/04 A3014 RMK AO2


Station Type Date Time Source
KMTN Decoded METAR 2024/04/23 03:39 UTC NOAA

Baltimore / Martin, MD, United States (KMTN) 39-20N 076-25W
Apr 22, 2024 - 11:39 PM EDT / 2024.04.23 0339 UTC
Wind: Calm:0
Visibility: 10 mile(s):0
Sky conditions: clear
Temperature: 46 F (8 C)
Dew Point: 39 F (4 C)
Relative Humidity: 75%
Pressure (altimeter): 30.14 in. Hg (1020 hPa)
ob: KMTN 230339Z AUTO 00000KT 10SM CLR 08/04 A3014 RMK AO2
cycle: 3

Station Type Date Time Source
KMTN TAF 2024/04/22 18:24 UTC NOAA